sensor_id;sensor_type;location;lat;lon;timestamp;temperature;humidity
26212;DHT22;13951;49.516;6.094;2023-07-29T00:00:53;19.40;99.90
26212;DHT22;13951;49.516;6.094;2023-07-29T00:03:28;19.40;99.90
26212;DHT22;13951;49.516;6.094;2023-07-29T00:06:05;19.40;99.90
26212;DHT22;13951;49.516;6.094;2023-07-29T00:08:38;19.40;99.90
26212;DHT22;13951;49.516;6.094;2023-07-29T00:11:11;19.40;99.90
26212;DHT22;13951;49.516;6.094;2023-07-29T00:13:45;19.40;99.90
26212;DHT22;13951;49.516;6.094;2023-07-29T00:16:20;19.40;99.90
26212;DHT22;13951;49.516;6.094;2023-07-29T00:18:56;19.40;99.90
26212;DHT22;13951;49.516;6.094;2023-07-29T00:21:29;19.40;99.90
26212;DHT22;13951;49.516;6.094;2023-07-29T00:24:02;19.40;99.90
26212;DHT22;13951;49.516;6.094;2023-07-29T00:26:35;19.40;99.90
26212;DHT22;13951;49.516;6.094;2023-07-29T00:29:09;19.40;99.90
26212;DHT22;13951;49.516;6.094;2023-07-29T00:31:42;19.40;99.90
26212;DHT22;13951;49.516;6.094;2023-07-29T00:34:15;19.40;99.90
26212;DHT22;13951;49.516;6.094;2023-07-29T00:36:52;19.40;99.90
26212;DHT22;13951;49.516;6.094;2023-07-29T00:39:25;19.40;99.90
26212;DHT22;13951;49.516;6.094;2023-07-29T00:41:59;19.40;99.90
26212;DHT22;13951;49.516;6.094;2023-07-29T00:44:32;19.40;99.90
26212;DHT22;13951;49.516;6.094;2023-07-29T00:47:07;19.40;99.90
26212;DHT22;13951;49.516;6.094;2023-07-29T00:49:40;19.40;99.90
26212;DHT22;13951;49.516;6.094;2023-07-29T00:52:14;19.40;99.90
26212;DHT22;13951;49.516;6.094;2023-07-29T00:54:47;19.40;99.90
26212;DHT22;13951;49.516;6.094;2023-07-29T00:57:20;19.40;99.90
26212;DHT22;13951;49.516;6.094;2023-07-29T00:59:54;19.40;99.90
26212;DHT22;13951;49.516;6.094;2023-07-29T01:02:27;19.40;99.90
26212;DHT22;13951;49.516;6.094;2023-07-29T01:05:02;19.40;99.90
26212;DHT22;13951;49.516;6.094;2023-07-29T01:07:48;19.40;99.90
26212;DHT22;13951;49.516;6.094;2023-07-29T01:10:43;19.40;99.90
26212;DHT22;13951;49.516;6.094;2023-07-29T01:13:37;19.40;99.90
26212;DHT22;13951;49.516;6.094;2023-07-29T01:16:17;19.40;99.90
26212;DHT22;13951;49.516;6.094;2023-07-29T01:18:54;19.40;99.90
26212;DHT22;13951;49.516;6.094;2023-07-29T01:21:28;19.40;99.90
26212;DHT22;13951;49.516;6.094;2023-07-29T01:24:02;19.40;99.90
26212;DHT22;13951;49.516;6.094;2023-07-29T01:26:35;19.40;99.90
26212;DHT22;13951;49.516;6.094;2023-07-29T01:29:09;19.40;99.90
26212;DHT22;13951;49.516;6.094;2023-07-29T01:31:44;19.40;99.90
26212;DHT22;13951;49.516;6.094;2023-07-29T01:34:28;19.40;99.90
26212;DHT22;13951;49.516;6.094;2023-07-29T01:37:05;19.40;99.90
26212;DHT22;13951;49.516;6.094;2023-07-29T01:39:41;19.40;99.90
26212;DHT22;13951;49.516;6.094;2023-07-29T01:42:16;19.40;99.90
26212;DHT22;13951;49.516;6.094;2023-07-29T01:44:50;19.40;99.90
26212;DHT22;13951;49.516;6.094;2023-07-29T01:47:23;19.40;99.90
26212;DHT22;13951;49.516;6.094;2023-07-29T01:49:59;19.40;99.90
26212;DHT22;13951;49.516;6.094;2023-07-29T01:52:33;19.40;99.90
26212;DHT22;13951;49.516;6.094;2023-07-29T01:55:07;19.40;99.90
26212;DHT22;13951;49.516;6.094;2023-07-29T01:57:40;19.40;99.90
26212;DHT22;13951;49.516;6.094;2023-07-29T02:00:13;19.40;99.90
26212;DHT22;13951;49.516;6.094;2023-07-29T02:02:46;19.40;99.90
26212;DHT22;13951;49.516;6.094;2023-07-29T02:05:20;19.40;99.90
26212;DHT22;13951;49.516;6.094;2023-07-29T02:07:53;19.40;99.90
26212;DHT22;13951;49.516;6.094;2023-07-29T02:10:26;19.40;99.90
26212;DHT22;13951;49.516;6.094;2023-07-29T02:12:59;19.40;99.90
26212;DHT22;13951;49.516;6.094;2023-07-29T02:15:34;19.40;99.90
26212;DHT22;13951;49.516;6.094;2023-07-29T02:18:07;19.40;99.90
26212;DHT22;13951;49.516;6.094;2023-07-29T02:20:40;19.40;99.90
26212;DHT22;13951;49.516;6.094;2023-07-29T02:23:22;19.50;99.90
26212;DHT22;13951;49.516;6.094;2023-07-29T02:25:56;19.50;99.90
26212;DHT22;13951;49.516;6.094;2023-07-29T02:28:29;19.50;99.90
26212;DHT22;13951;49.516;6.094;2023-07-29T02:31:30;19.40;99.90
26212;DHT22;13951;49.516;6.094;2023-07-29T02:34:04;19.40;99.90
26212;DHT22;13951;49.516;6.094;2023-07-29T02:36:37;19.40;99.90
26212;DHT22;13951;49.516;6.094;2023-07-29T02:39:11;19.40;99.90
26212;DHT22;13951;49.516;6.094;2023-07-29T02:41:44;19.40;99.90
26212;DHT22;13951;49.516;6.094;2023-07-29T02:44:18;19.40;99.90
26212;DHT22;13951;49.516;6.094;2023-07-29T02:46:52;19.50;99.90
26212;DHT22;13951;49.516;6.094;2023-07-29T02:49:27;19.40;99.90
26212;DHT22;13951;49.516;6.094;2023-07-29T02:52:00;19.50;99.90
26212;DHT22;13951;49.516;6.094;2023-07-29T02:54:34;19.40;99.90
26212;DHT22;13951;49.516;6.094;2023-07-29T02:57:07;19.40;99.90
26212;DHT22;13951;49.516;6.094;2023-07-29T02:59:40;19.50;99.90
26212;DHT22;13951;49.516;6.094;2023-07-29T03:02:13;19.40;99.90
26212;DHT22;13951;49.516;6.094;2023-07-29T03:04:49;19.40;99.90
26212;DHT22;13951;49.516;6.094;2023-07-29T03:07:22;19.40;99.90
26212;DHT22;13951;49.516;6.094;2023-07-29T03:09:56;19.40;99.90
26212;DHT22;13951;49.516;6.094;2023-07-29T03:12:29;19.40;99.90
26212;DHT22;13951;49.516;6.094;2023-07-29T03:15:02;19.40;99.90
26212;DHT22;13951;49.516;6.094;2023-07-29T03:17:36;19.30;99.90
26212;DHT22;13951;49.516;6.094;2023-07-29T03:20:10;19.20;99.90
26212;DHT22;13951;49.516;6.094;2023-07-29T03:22:44;19.10;99.90
26212;DHT22;13951;49.516;6.094;2023-07-29T03:25:17;19.10;99.90
26212;DHT22;13951;49.516;6.094;2023-07-29T03:27:51;19.00;99.90
26212;DHT22;13951;49.516;6.094;2023-07-29T03:30:24;19.00;99.90
26212;DHT22;13951;49.516;6.094;2023-07-29T03:32:58;18.90;99.90
26212;DHT22;13951;49.516;6.094;2023-07-29T03:35:31;18.90;99.90
26212;DHT22;13951;49.516;6.094;2023-07-29T03:38:04;18.80;99.90
26212;DHT22;13951;49.516;6.094;2023-07-29T03:40:41;18.80;99.90
26212;DHT22;13951;49.516;6.094;2023-07-29T03:43:14;18.70;99.90
26212;DHT22;13951;49.516;6.094;2023-07-29T03:45:47;18.70;99.90
26212;DHT22;13951;49.516;6.094;2023-07-29T03:48:20;18.70;99.90
26212;DHT22;13951;49.516;6.094;2023-07-29T03:50:53;18.70;99.90
26212;DHT22;13951;49.516;6.094;2023-07-29T03:53:28;18.70;99.90
26212;DHT22;13951;49.516;6.094;2023-07-29T03:56:01;18.70;99.90
26212;DHT22;13951;49.516;6.094;2023-07-29T03:58:37;18.70;99.90
26212;DHT22;13951;49.516;6.094;2023-07-29T04:01:10;18.70;99.90
26212;DHT22;13951;49.516;6.094;2023-07-29T04:03:45;18.70;99.90
26212;DHT22;13951;49.516;6.094;2023-07-29T04:06:19;18.70;99.90
26212;DHT22;13951;49.516;6.094;2023-07-29T04:08:53;18.70;99.90
26212;DHT22;13951;49.516;6.094;2023-07-29T04:11:26;18.70;99.90
26212;DHT22;13951;49.516;6.094;2023-07-29T04:13:59;18.70;99.90
26212;DHT22;13951;49.516;6.094;2023-07-29T04:16:33;18.70;99.90
26212;DHT22;13951;49.516;6.094;2023-07-29T04:19:08;18.70;99.90
26212;DHT22;13951;49.516;6.094;2023-07-29T04:21:41;18.70;99.90
26212;DHT22;13951;49.516;6.094;2023-07-29T04:24:14;18.70;99.90
26212;DHT22;13951;49.516;6.094;2023-07-29T04:26:49;18.70;99.90
26212;DHT22;13951;49.516;6.094;2023-07-29T04:29:22;18.70;99.90
26212;DHT22;13951;49.516;6.094;2023-07-29T04:31:55;18.70;99.90
26212;DHT22;13951;49.516;6.094;2023-07-29T04:34:29;18.60;99.90
26212;DHT22;13951;49.516;6.094;2023-07-29T04:37:02;18.60;99.90
26212;DHT22;13951;49.516;6.094;2023-07-29T04:39:35;18.50;99.90
26212;DHT22;13951;49.516;6.094;2023-07-29T04:42:10;18.50;99.90
26212;DHT22;13951;49.516;6.094;2023-07-29T04:44:43;18.40;99.90
26212;DHT22;13951;49.516;6.094;2023-07-29T04:47:16;18.50;99.90
26212;DHT22;13951;49.516;6.094;2023-07-29T04:49:49;18.40;99.90
26212;DHT22;13951;49.516;6.094;2023-07-29T04:52:23;18.50;99.90
26212;DHT22;13951;49.516;6.094;2023-07-29T04:54:56;18.50;99.90
26212;DHT22;13951;49.516;6.094;2023-07-29T04:57:29;18.50;99.90
26212;DHT22;13951;49.516;6.094;2023-07-29T05:00:03;18.50;99.90
26212;DHT22;13951;49.516;6.094;2023-07-29T05:02:37;18.50;99.90
26212;DHT22;13951;49.516;6.094;2023-07-29T05:05:11;18.50;99.90
26212;DHT22;13951;49.516;6.094;2023-07-29T05:07:44;18.50;99.90
26212;DHT22;13951;49.516;6.094;2023-07-29T05:10:17;18.50;99.90
26212;DHT22;13951;49.516;6.094;2023-07-29T05:12:50;18.60;99.90
26212;DHT22;13951;49.516;6.094;2023-07-29T05:15:23;18.60;99.90
26212;DHT22;13951;49.516;6.094;2023-07-29T05:17:56;18.60;99.90
26212;DHT22;13951;49.516;6.094;2023-07-29T05:20:30;18.60;99.90
26212;DHT22;13951;49.516;6.094;2023-07-29T05:23:04;18.60;99.90
26212;DHT22;13951;49.516;6.094;2023-07-29T05:25:37;18.60;99.90
26212;DHT22;13951;49.516;6.094;2023-07-29T05:28:11;18.60;99.90
26212;DHT22;13951;49.516;6.094;2023-07-29T05:30:46;18.60;99.90
26212;DHT22;13951;49.516;6.094;2023-07-29T05:33:19;18.60;99.90
26212;DHT22;13951;49.516;6.094;2023-07-29T05:35:52;18.70;99.90
26212;DHT22;13951;49.516;6.094;2023-07-29T05:38:26;18.70;99.90
26212;DHT22;13951;49.516;6.094;2023-07-29T05:40:59;18.70;99.90
26212;DHT22;13951;49.516;6.094;2023-07-29T05:43:32;18.70;99.90
26212;DHT22;13951;49.516;6.094;2023-07-29T05:46:06;18.70;99.90
26212;DHT22;13951;49.516;6.094;2023-07-29T05:48:40;18.80;99.90
26212;DHT22;13951;49.516;6.094;2023-07-29T05:51:14;18.70;99.90
26212;DHT22;13951;49.516;6.094;2023-07-29T05:53:47;18.70;99.90
26212;DHT22;13951;49.516;6.094;2023-07-29T05:56:20;18.70;99.90
26212;DHT22;13951;49.516;6.094;2023-07-29T05:58:53;18.70;99.90
26212;DHT22;13951;49.516;6.094;2023-07-29T06:01:26;18.70;99.90
26212;DHT22;13951;49.516;6.094;2023-07-29T06:04:00;18.70;99.90
26212;DHT22;13951;49.516;6.094;2023-07-29T06:06:33;18.70;99.90
26212;DHT22;13951;49.516;6.094;2023-07-29T06:09:07;18.70;99.90
26212;DHT22;13951;49.516;6.094;2023-07-29T06:11:40;18.70;99.90
26212;DHT22;13951;49.516;6.094;2023-07-29T06:14:16;18.70;99.90
26212;DHT22;13951;49.516;6.094;2023-07-29T06:16:49;18.70;99.90
26212;DHT22;13951;49.516;6.094;2023-07-29T06:19:22;18.70;99.90
26212;DHT22;13951;49.516;6.094;2023-07-29T06:21:56;18.70;99.90
26212;DHT22;13951;49.516;6.094;2023-07-29T06:24:29;18.70;99.90
26212;DHT22;13951;49.516;6.094;2023-07-29T06:27:04;18.70;99.90
26212;DHT22;13951;49.516;6.094;2023-07-29T06:29:37;18.70;99.90
26212;DHT22;13951;49.516;6.094;2023-07-29T06:32:10;18.80;99.90
26212;DHT22;13951;49.516;6.094;2023-07-29T06:34:44;19.10;99.90
26212;DHT22;13951;49.516;6.094;2023-07-29T06:37:17;19.10;99.90
26212;DHT22;13951;49.516;6.094;2023-07-29T06:39:50;19.30;99.90
26212;DHT22;13951;49.516;6.094;2023-07-29T06:42:23;19.30;99.90
26212;DHT22;13951;49.516;6.094;2023-07-29T06:44:56;19.40;99.90
26212;DHT22;13951;49.516;6.094;2023-07-29T06:47:29;19.40;99.90
26212;DHT22;13951;49.516;6.094;2023-07-29T06:50:02;19.40;99.90
26212;DHT22;13951;49.516;6.094;2023-07-29T06:52:35;19.30;99.90
26212;DHT22;13951;49.516;6.094;2023-07-29T06:55:09;19.40;99.90
26212;DHT22;13951;49.516;6.094;2023-07-29T06:57:43;19.40;99.90
26212;DHT22;13951;49.516;6.094;2023-07-29T07:00:16;19.50;99.90
26212;DHT22;13951;49.516;6.094;2023-07-29T07:05:22;19.80;99.90
26212;DHT22;13951;49.516;6.094;2023-07-29T07:07:55;20.00;99.90
26212;DHT22;13951;49.516;6.094;2023-07-29T07:10:29;20.10;99.90
26212;DHT22;13951;49.516;6.094;2023-07-29T07:13:02;20.10;99.90
26212;DHT22;13951;49.516;6.094;2023-07-29T07:15:35;20.30;99.90
26212;DHT22;13951;49.516;6.094;2023-07-29T07:20:42;20.90;99.90
26212;DHT22;13951;49.516;6.094;2023-07-29T07:23:15;20.90;99.90
26212;DHT22;13951;49.516;6.094;2023-07-29T07:25:48;20.90;99.90
26212;DHT22;13951;49.516;6.094;2023-07-29T07:28:21;20.90;99.90
26212;DHT22;13951;49.516;6.094;2023-07-29T07:30:55;20.80;99.90
26212;DHT22;13951;49.516;6.094;2023-07-29T07:33:28;20.70;99.90
26212;DHT22;13951;49.516;6.094;2023-07-29T07:36:01;20.60;99.90
26212;DHT22;13951;49.516;6.094;2023-07-29T07:38:34;20.50;99.90
26212;DHT22;13951;49.516;6.094;2023-07-29T07:41:08;20.40;99.90
26212;DHT22;13951;49.516;6.094;2023-07-29T07:43:41;20.30;99.90
26212;DHT22;13951;49.516;6.094;2023-07-29T07:46:14;20.40;99.90
26212;DHT22;13951;49.516;6.094;2023-07-29T07:48:47;20.40;99.90
26212;DHT22;13951;49.516;6.094;2023-07-29T07:51:21;20.40;99.90
26212;DHT22;13951;49.516;6.094;2023-07-29T07:53:54;20.50;99.90
26212;DHT22;13951;49.516;6.094;2023-07-29T07:56:27;20.50;99.90
26212;DHT22;13951;49.516;6.094;2023-07-29T07:59:00;20.60;99.90
26212;DHT22;13951;49.516;6.094;2023-07-29T08:01:37;20.80;99.90
26212;DHT22;13951;49.516;6.094;2023-07-29T08:04:10;20.90;99.90
26212;DHT22;13951;49.516;6.094;2023-07-29T08:06:43;21.00;99.90
26212;DHT22;13951;49.516;6.094;2023-07-29T08:09:16;21.00;99.90
26212;DHT22;13951;49.516;6.094;2023-07-29T08:11:49;21.20;99.90
26212;DHT22;13951;49.516;6.094;2023-07-29T08:14:22;21.30;99.90
26212;DHT22;13951;49.516;6.094;2023-07-29T08:16:55;21.40;99.90
26212;DHT22;13951;49.516;6.094;2023-07-29T08:19:28;21.50;99.90
26212;DHT22;13951;49.516;6.094;2023-07-29T08:22:02;21.70;99.90
26212;DHT22;13951;49.516;6.094;2023-07-29T08:24:36;22.00;99.90
26212;DHT22;13951;49.516;6.094;2023-07-29T08:27:09;22.10;99.90
26212;DHT22;13951;49.516;6.094;2023-07-29T08:29:42;22.30;99.90
26212;DHT22;13951;49.516;6.094;2023-07-29T08:32:15;22.40;99.90
26212;DHT22;13951;49.516;6.094;2023-07-29T08:34:48;22.40;99.90
26212;DHT22;13951;49.516;6.094;2023-07-29T08:37:22;22.30;99.90
26212;DHT22;13951;49.516;6.094;2023-07-29T08:39:55;22.20;99.90
26212;DHT22;13951;49.516;6.094;2023-07-29T08:42:31;22.20;99.90
26212;DHT22;13951;49.516;6.094;2023-07-29T08:45:07;22.10;99.90
26212;DHT22;13951;49.516;6.094;2023-07-29T08:47:43;22.10;99.90
26212;DHT22;13951;49.516;6.094;2023-07-29T08:50:16;22.10;99.90
26212;DHT22;13951;49.516;6.094;2023-07-29T08:52:51;22.10;99.90
26212;DHT22;13951;49.516;6.094;2023-07-29T08:55:24;22.20;99.90
26212;DHT22;13951;49.516;6.094;2023-07-29T08:57:59;22.10;99.90
26212;DHT22;13951;49.516;6.094;2023-07-29T09:00:32;22.10;99.90
26212;DHT22;13951;49.516;6.094;2023-07-29T09:03:06;22.20;99.90
26212;DHT22;13951;49.516;6.094;2023-07-29T09:05:40;22.40;99.90
26212;DHT22;13951;49.516;6.094;2023-07-29T09:08:14;22.50;99.90
26212;DHT22;13951;49.516;6.094;2023-07-29T09:10:51;22.50;99.90
26212;DHT22;13951;49.516;6.094;2023-07-29T09:13:25;22.50;99.90
26212;DHT22;13951;49.516;6.094;2023-07-29T09:15:58;22.60;99.90
26212;DHT22;13951;49.516;6.094;2023-07-29T09:18:31;22.60;99.90
26212;DHT22;13951;49.516;6.094;2023-07-29T09:21:04;22.50;99.90
26212;DHT22;13951;49.516;6.094;2023-07-29T09:23:41;22.40;99.90
26212;DHT22;13951;49.516;6.094;2023-07-29T09:26:22;22.40;99.90
26212;DHT22;13951;49.516;6.094;2023-07-29T09:28:57;22.50;99.90
26212;DHT22;13951;49.516;6.094;2023-07-29T09:31:31;22.60;99.90
26212;DHT22;13951;49.516;6.094;2023-07-29T09:34:04;22.60;99.90
26212;DHT22;13951;49.516;6.094;2023-07-29T09:36:38;22.40;99.90
26212;DHT22;13951;49.516;6.094;2023-07-29T09:39:12;22.30;99.90
26212;DHT22;13951;49.516;6.094;2023-07-29T09:41:53;22.20;99.90
26212;DHT22;13951;49.516;6.094;2023-07-29T09:44:26;22.30;99.90
26212;DHT22;13951;49.516;6.094;2023-07-29T09:46:59;22.30;99.90
26212;DHT22;13951;49.516;6.094;2023-07-29T09:49:35;22.50;99.90
26212;DHT22;13951;49.516;6.094;2023-07-29T09:52:09;22.70;99.90
26212;DHT22;13951;49.516;6.094;2023-07-29T09:54:46;23.10;99.90
26212;DHT22;13951;49.516;6.094;2023-07-29T09:57:20;23.30;99.90
26212;DHT22;13951;49.516;6.094;2023-07-29T09:59:57;23.50;99.90
26212;DHT22;13951;49.516;6.094;2023-07-29T10:02:31;23.50;99.90
26212;DHT22;13951;49.516;6.094;2023-07-29T10:05:05;23.40;99.90
26212;DHT22;13951;49.516;6.094;2023-07-29T10:07:40;23.30;99.90
26212;DHT22;13951;49.516;6.094;2023-07-29T10:10:13;23.20;99.90
26212;DHT22;13951;49.516;6.094;2023-07-29T10:12:47;23.20;99.90
26212;DHT22;13951;49.516;6.094;2023-07-29T10:15:21;23.30;99.90
26212;DHT22;13951;49.516;6.094;2023-07-29T10:17:54;23.40;99.90
26212;DHT22;13951;49.516;6.094;2023-07-29T10:20:30;23.40;99.90
26212;DHT22;13951;49.516;6.094;2023-07-29T10:23:06;23.30;99.90
26212;DHT22;13951;49.516;6.094;2023-07-29T10:25:44;23.30;99.90
26212;DHT22;13951;49.516;6.094;2023-07-29T10:28:20;23.50;99.90
26212;DHT22;13951;49.516;6.094;2023-07-29T10:30:59;23.70;99.90
26212;DHT22;13951;49.516;6.094;2023-07-29T10:33:34;23.90;99.90
26212;DHT22;13951;49.516;6.094;2023-07-29T10:36:08;23.90;99.90
26212;DHT22;13951;49.516;6.094;2023-07-29T10:38:41;23.70;99.90
26212;DHT22;13951;49.516;6.094;2023-07-29T10:41:15;23.70;99.90
26212;DHT22;13951;49.516;6.094;2023-07-29T10:43:48;23.70;99.90
26212;DHT22;13951;49.516;6.094;2023-07-29T10:46:22;23.70;99.90
26212;DHT22;13951;49.516;6.094;2023-07-29T10:48:57;23.80;99.90
26212;DHT22;13951;49.516;6.094;2023-07-29T10:51:30;24.10;99.90
26212;DHT22;13951;49.516;6.094;2023-07-29T10:54:13;24.30;99.90
26212;DHT22;13951;49.516;6.094;2023-07-29T10:56:48;24.40;99.90
26212;DHT22;13951;49.516;6.094;2023-07-29T11:01:57;24.50;99.90
26212;DHT22;13951;49.516;6.094;2023-07-29T11:04:31;24.80;99.90
26212;DHT22;13951;49.516;6.094;2023-07-29T11:12:46;25.20;99.90
26212;DHT22;13951;49.516;6.094;2023-07-29T11:15:26;25.50;99.90
26212;DHT22;13951;49.516;6.094;2023-07-29T11:18:05;25.60;99.90
26212;DHT22;13951;49.516;6.094;2023-07-29T11:20:39;25.80;99.90
26212;DHT22;13951;49.516;6.094;2023-07-29T11:23:13;26.00;99.90
26212;DHT22;13951;49.516;6.094;2023-07-29T11:25:46;26.10;99.90
26212;DHT22;13951;49.516;6.094;2023-07-29T11:28:19;26.30;99.90
26212;DHT22;13951;49.516;6.094;2023-07-29T11:30:54;26.30;99.90
26212;DHT22;13951;49.516;6.094;2023-07-29T11:33:27;26.10;99.90
26212;DHT22;13951;49.516;6.094;2023-07-29T11:36:01;25.70;99.90
26212;DHT22;13951;49.516;6.094;2023-07-29T11:38:34;25.50;99.90
26212;DHT22;13951;49.516;6.094;2023-07-29T11:41:11;25.60;99.90
26212;DHT22;13951;49.516;6.094;2023-07-29T11:43:44;25.60;99.90
26212;DHT22;13951;49.516;6.094;2023-07-29T11:46:21;25.50;99.90
26212;DHT22;13951;49.516;6.094;2023-07-29T11:48:54;25.40;99.90
26212;DHT22;13951;49.516;6.094;2023-07-29T11:51:28;25.30;99.90
26212;DHT22;13951;49.516;6.094;2023-07-29T11:54:01;25.30;99.90
26212;DHT22;13951;49.516;6.094;2023-07-29T11:56:35;25.50;99.90
26212;DHT22;13951;49.516;6.094;2023-07-29T11:59:09;25.70;99.90
26212;DHT22;13951;49.516;6.094;2023-07-29T12:01:42;25.80;99.90
26212;DHT22;13951;49.516;6.094;2023-07-29T12:04:15;26.00;99.90
26212;DHT22;13951;49.516;6.094;2023-07-29T12:06:49;26.20;99.90
26212;DHT22;13951;49.516;6.094;2023-07-29T12:09:22;26.40;99.90
26212;DHT22;13951;49.516;6.094;2023-07-29T12:11:55;26.50;99.90
26212;DHT22;13951;49.516;6.094;2023-07-29T12:14:29;26.60;99.90
26212;DHT22;13951;49.516;6.094;2023-07-29T12:17:04;26.60;99.90
26212;DHT22;13951;49.516;6.094;2023-07-29T12:19:41;26.70;99.90
26212;DHT22;13951;49.516;6.094;2023-07-29T12:22:19;26.70;99.90
26212;DHT22;13951;49.516;6.094;2023-07-29T12:24:52;26.70;99.90
26212;DHT22;13951;49.516;6.094;2023-07-29T12:27:26;26.50;99.90
26212;DHT22;13951;49.516;6.094;2023-07-29T12:30:01;26.30;99.90
26212;DHT22;13951;49.516;6.094;2023-07-29T12:32:44;26.10;99.90
26212;DHT22;13951;49.516;6.094;2023-07-29T12:35:17;25.70;99.90
26212;DHT22;13951;49.516;6.094;2023-07-29T12:40:38;25.40;99.90
26212;DHT22;13951;49.516;6.094;2023-07-29T12:43:12;25.20;99.90
26212;DHT22;13951;49.516;6.094;2023-07-29T12:45:45;25.00;99.90
26212;DHT22;13951;49.516;6.094;2023-07-29T12:48:19;25.00;99.90
26212;DHT22;13951;49.516;6.094;2023-07-29T12:50:52;24.90;99.90
26212;DHT22;13951;49.516;6.094;2023-07-29T12:53:25;24.90;99.90
26212;DHT22;13951;49.516;6.094;2023-07-29T12:56:00;25.00;99.90
26212;DHT22;13951;49.516;6.094;2023-07-29T12:58:34;25.10;99.90
26212;DHT22;13951;49.516;6.094;2023-07-29T13:01:07;25.20;99.90
26212;DHT22;13951;49.516;6.094;2023-07-29T13:03:42;25.20;99.90
26212;DHT22;13951;49.516;6.094;2023-07-29T13:06:16;25.30;99.90
26212;DHT22;13951;49.516;6.094;2023-07-29T13:08:49;25.20;99.90
26212;DHT22;13951;49.516;6.094;2023-07-29T13:11:23;25.20;99.90
26212;DHT22;13951;49.516;6.094;2023-07-29T13:13:56;25.30;99.90
26212;DHT22;13951;49.516;6.094;2023-07-29T13:16:29;25.20;99.90
26212;DHT22;13951;49.516;6.094;2023-07-29T13:19:02;25.30;99.90
26212;DHT22;13951;49.516;6.094;2023-07-29T13:21:35;25.20;99.90
26212;DHT22;13951;49.516;6.094;2023-07-29T13:24:09;25.30;99.90
26212;DHT22;13951;49.516;6.094;2023-07-29T13:26:43;25.30;99.90
26212;DHT22;13951;49.516;6.094;2023-07-29T13:29:16;25.30;99.90
26212;DHT22;13951;49.516;6.094;2023-07-29T13:31:49;25.30;99.90
26212;DHT22;13951;49.516;6.094;2023-07-29T13:34:23;25.30;99.90
26212;DHT22;13951;49.516;6.094;2023-07-29T13:36:56;25.40;99.90
26212;DHT22;13951;49.516;6.094;2023-07-29T13:39:29;25.30;99.90
26212;DHT22;13951;49.516;6.094;2023-07-29T13:42:02;25.40;99.90
26212;DHT22;13951;49.516;6.094;2023-07-29T13:44:37;25.40;99.90
26212;DHT22;13951;49.516;6.094;2023-07-29T13:47:10;25.30;99.90
26212;DHT22;13951;49.516;6.094;2023-07-29T13:49:43;25.30;99.90
26212;DHT22;13951;49.516;6.094;2023-07-29T13:52:16;25.30;99.90
26212;DHT22;13951;49.516;6.094;2023-07-29T13:54:53;25.30;99.90
26212;DHT22;13951;49.516;6.094;2023-07-29T13:57:26;25.20;99.90
26212;DHT22;13951;49.516;6.094;2023-07-29T13:59:59;25.20;99.90
26212;DHT22;13951;49.516;6.094;2023-07-29T14:02:42;25.20;99.90
26212;DHT22;13951;49.516;6.094;2023-07-29T14:05:17;25.10;99.90
26212;DHT22;13951;49.516;6.094;2023-07-29T14:07:50;25.10;99.90
26212;DHT22;13951;49.516;6.094;2023-07-29T14:10:24;25.00;99.90
26212;DHT22;13951;49.516;6.094;2023-07-29T14:12:57;25.10;99.90
26212;DHT22;13951;49.516;6.094;2023-07-29T14:15:31;25.10;99.90
26212;DHT22;13951;49.516;6.094;2023-07-29T14:18:06;25.10;99.90
26212;DHT22;13951;49.516;6.094;2023-07-29T14:20:40;25.00;99.90
26212;DHT22;13951;49.516;6.094;2023-07-29T14:23:13;24.90;99.90
26212;DHT22;13951;49.516;6.094;2023-07-29T14:25:46;24.80;99.90
26212;DHT22;13951;49.516;6.094;2023-07-29T14:28:20;24.70;99.90
26212;DHT22;13951;49.516;6.094;2023-07-29T14:30:54;24.70;99.90
26212;DHT22;13951;49.516;6.094;2023-07-29T14:33:27;24.70;99.90
26212;DHT22;13951;49.516;6.094;2023-07-29T14:36:00;24.80;99.90
26212;DHT22;13951;49.516;6.094;2023-07-29T14:38:36;24.80;99.90
26212;DHT22;13951;49.516;6.094;2023-07-29T14:41:09;24.80;99.90
26212;DHT22;13951;49.516;6.094;2023-07-29T14:43:43;24.80;99.90
26212;DHT22;13951;49.516;6.094;2023-07-29T14:46:17;24.80;99.90
26212;DHT22;13951;49.516;6.094;2023-07-29T14:48:50;24.80;99.90
26212;DHT22;13951;49.516;6.094;2023-07-29T14:51:23;24.80;99.90
26212;DHT22;13951;49.516;6.094;2023-07-29T14:53:56;24.80;99.90
26212;DHT22;13951;49.516;6.094;2023-07-29T14:56:29;24.70;99.90
26212;DHT22;13951;49.516;6.094;2023-07-29T14:59:02;24.70;99.90
26212;DHT22;13951;49.516;6.094;2023-07-29T15:01:35;24.60;99.90
26212;DHT22;13951;49.516;6.094;2023-07-29T15:04:09;24.60;99.90
26212;DHT22;13951;49.516;6.094;2023-07-29T15:06:42;24.60;99.90
26212;DHT22;13951;49.516;6.094;2023-07-29T15:09:15;24.50;99.90
26212;DHT22;13951;49.516;6.094;2023-07-29T15:11:48;24.50;99.90
26212;DHT22;13951;49.516;6.094;2023-07-29T15:14:21;24.40;99.90
26212;DHT22;13951;49.516;6.094;2023-07-29T15:16:54;24.40;99.90
26212;DHT22;13951;49.516;6.094;2023-07-29T15:19:27;24.40;99.90
26212;DHT22;13951;49.516;6.094;2023-07-29T15:22:00;24.40;99.90
26212;DHT22;13951;49.516;6.094;2023-07-29T15:24:33;24.40;99.90
26212;DHT22;13951;49.516;6.094;2023-07-29T15:27:06;24.40;99.90
26212;DHT22;13951;49.516;6.094;2023-07-29T15:29:40;24.40;99.90
26212;DHT22;13951;49.516;6.094;2023-07-29T15:32:13;24.30;99.90
26212;DHT22;13951;49.516;6.094;2023-07-29T15:34:47;24.20;99.90
26212;DHT22;13951;49.516;6.094;2023-07-29T15:37:20;24.10;99.90
26212;DHT22;13951;49.516;6.094;2023-07-29T15:39:53;24.10;99.90
26212;DHT22;13951;49.516;6.094;2023-07-29T15:42:26;24.10;99.90
26212;DHT22;13951;49.516;6.094;2023-07-29T15:45:00;24.00;99.90
26212;DHT22;13951;49.516;6.094;2023-07-29T15:47:33;24.00;99.90
26212;DHT22;13951;49.516;6.094;2023-07-29T15:50:06;24.10;99.90
26212;DHT22;13951;49.516;6.094;2023-07-29T15:52:41;24.10;99.90
26212;DHT22;13951;49.516;6.094;2023-07-29T15:55:16;24.00;99.90
26212;DHT22;13951;49.516;6.094;2023-07-29T15:57:50;24.10;99.90
26212;DHT22;13951;49.516;6.094;2023-07-29T16:00:23;24.00;99.90
26212;DHT22;13951;49.516;6.094;2023-07-29T16:03:01;24.10;99.90
26212;DHT22;13951;49.516;6.094;2023-07-29T16:05:35;24.10;99.90
26212;DHT22;13951;49.516;6.094;2023-07-29T16:08:08;24.10;99.90
26212;DHT22;13951;49.516;6.094;2023-07-29T16:10:41;24.00;99.90
26212;DHT22;13951;49.516;6.094;2023-07-29T16:13:17;24.00;99.90
26212;DHT22;13951;49.516;6.094;2023-07-29T16:15:52;24.00;99.90
26212;DHT22;13951;49.516;6.094;2023-07-29T16:18:26;23.90;99.90
26212;DHT22;13951;49.516;6.094;2023-07-29T16:20:59;23.90;99.90
26212;DHT22;13951;49.516;6.094;2023-07-29T16:23:36;23.90;99.90
26212;DHT22;13951;49.516;6.094;2023-07-29T16:26:10;23.90;99.90
26212;DHT22;13951;49.516;6.094;2023-07-29T16:28:43;23.80;99.90